ESMS

Malmö Sturup Airport

Malmö, Sweden
METAR ESMS 231350Z 26012KT 9999 FEW049 13/05 Q1007
Observed Flight Rules
Sep-23 @ 13:50 UTC (36 minutes ago) Visual Flight Rules
Wind Visibility Clouds
260° at 12 knots 10,000+ meters
Temperatures Readings
Current 13°C / 55°F
Dewpoint 5°C / 41°F
Humidity 59%
Altimeter 29.73" Hg
Pressure 1007 hPa
Elevation 106
METAR ESMS 231350Z 26012KT 9999 FEW049 13/05 Q1007
Observed Flight Rules
Sep-23 @ 13:50 UTC
(36 minutes ago)
VFR
Wind Visibility
260° at 12 knots 10,000+ meters
Clouds
Temperature Dewpoint
13°C / 55°F 5°C / 41°F
Humidity Altimeter Pressure
59% 29.73" Hg 1007 hPa